sensor_id;sensor_type;location;lat;lon;timestamp;temperature;humidity
63407;SHT31;49543;45.892;10.838;2022-11-09T12:42:08;15.10;69.86
63407;SHT31;49543;45.892;10.838;2022-11-09T18:31:51;13.43;85.33
63407;SHT31;49543;45.892;10.838;2022-11-09T18:34:17;13.41;85.53
63407;SHT31;49543;45.892;10.838;2022-11-09T18:36:42;13.38;85.75
63407;SHT31;49543;45.892;10.838;2022-11-09T18:39:07;13.41;85.92
63407;SHT31;49543;45.892;10.838;2022-11-09T18:41:33;13.40;85.79
63407;SHT31;49543;45.892;10.838;2022-11-09T18:43:58;13.40;85.88
63407;SHT31;49543;45.892;10.838;2022-11-09T18:46:24;13.38;85.60
63407;SHT31;49543;45.892;10.838;2022-11-09T18:48:54;13.41;85.52
63407;SHT31;49543;45.892;10.838;2022-11-09T18:51:19;13.43;85.37
63407;SHT31;49543;45.892;10.838;2022-11-09T18:53:46;13.43;85.24
63407;SHT31;49543;45.892;10.838;2022-11-09T18:56:17;13.38;85.63
63407;SHT31;49543;45.892;10.838;2022-11-09T18:58:47;13.34;85.63
63407;SHT31;49543;45.892;10.838;2022-11-09T19:01:13;13.37;85.69
63407;SHT31;49543;45.892;10.838;2022-11-09T19:03:39;13.27;86.04
63407;SHT31;49543;45.892;10.838;2022-11-09T19:06:16;13.28;86.31
63407;SHT31;49543;45.892;10.838;2022-11-09T19:08:42;13.31;86.35
63407;SHT31;49543;45.892;10.838;2022-11-09T19:11:27;13.30;86.38
63407;SHT31;49543;45.892;10.838;2022-11-09T19:13:54;13.30;86.77
63407;SHT31;49543;45.892;10.838;2022-11-09T19:16:20;13.30;86.52
63407;SHT31;49543;45.892;10.838;2022-11-09T19:18:45;13.33;86.14
63407;SHT31;49543;45.892;10.838;2022-11-09T19:23:52;13.24;86.31
63407;SHT31;49543;45.892;10.838;2022-11-09T19:26:18;13.21;86.42
63407;SHT31;49543;45.892;10.838;2022-11-09T19:28:44;13.21;86.47
63407;SHT31;49543;45.892;10.838;2022-11-09T19:31:14;13.20;86.51
63407;SHT31;49543;45.892;10.838;2022-11-09T19:33:40;13.21;86.34
63407;SHT31;49543;45.892;10.838;2022-11-09T19:36:07;13.21;86.15
63407;SHT31;49543;45.892;10.838;2022-11-09T19:38:32;13.26;86.08
63407;SHT31;49543;45.892;10.838;2022-11-09T19:40:58;13.27;85.95
63407;SHT31;49543;45.892;10.838;2022-11-09T19:43:23;13.21;86.14
63407;SHT31;49543;45.892;10.838;2022-11-09T19:45:49;13.23;86.13
63407;SHT31;49543;45.892;10.838;2022-11-09T19:48:14;13.21;86.01
63407;SHT31;49543;45.892;10.838;2022-11-09T19:50:45;13.20;86.04
63407;SHT31;49543;45.892;10.838;2022-11-09T19:53:11;13.20;86.13
63407;SHT31;49543;45.892;10.838;2022-11-09T19:55:37;13.19;86.15
63407;SHT31;49543;45.892;10.838;2022-11-09T19:58:03;13.16;86.57
63407;SHT31;49543;45.892;10.838;2022-11-09T20:00:35;13.14;86.89
63407;SHT31;49543;45.892;10.838;2022-11-09T20:03:02;13.11;86.97
63407;SHT31;49543;45.892;10.838;2022-11-09T20:05:28;13.14;86.87
63407;SHT31;49543;45.892;10.838;2022-11-09T20:07:55;13.17;86.59
63407;SHT31;49543;45.892;10.838;2022-11-09T20:10:22;13.16;86.86
63407;SHT31;49543;45.892;10.838;2022-11-09T20:12:47;13.16;87.17
63407;SHT31;49543;45.892;10.838;2022-11-09T20:15:19;13.17;86.90
63407;SHT31;49543;45.892;10.838;2022-11-09T20:17:45;13.19;86.84
63407;SHT31;49543;45.892;10.838;2022-11-09T20:20:12;13.14;86.43
63407;SHT31;49543;45.892;10.838;2022-11-09T20:22:41;13.13;86.37
63407;SHT31;49543;45.892;10.838;2022-11-09T20:25:10;13.13;87.12
63407;SHT31;49543;45.892;10.838;2022-11-09T20:27:36;13.06;87.16
63407;SHT31;49543;45.892;10.838;2022-11-09T20:30:01;13.00;87.71
63407;SHT31;49543;45.892;10.838;2022-11-09T20:32:27;12.97;87.82
63407;SHT31;49543;45.892;10.838;2022-11-09T20:34:52;12.93;88.35
63407;SHT31;49543;45.892;10.838;2022-11-09T20:37:18;12.99;88.93
63407;SHT31;49543;45.892;10.838;2022-11-09T20:39:44;13.00;88.64
63407;SHT31;49543;45.892;10.838;2022-11-09T20:43:04;12.95;88.85
63407;SHT31;49543;45.892;10.838;2022-11-09T20:45:13;12.92;89.35
63407;SHT31;49543;45.892;10.838;2022-11-09T20:47:39;12.92;89.45
63407;SHT31;49543;45.892;10.838;2022-11-09T20:50:05;12.93;89.68
63407;SHT31;49543;45.892;10.838;2022-11-09T20:52:31;12.89;90.06
63407;SHT31;49543;45.892;10.838;2022-11-09T20:54:56;12.83;90.25
63407;SHT31;49543;45.892;10.838;2022-11-09T20:57:23;12.85;90.08
63407;SHT31;49543;45.892;10.838;2022-11-09T20:59:49;12.81;90.20
63407;SHT31;49543;45.892;10.838;2022-11-09T21:02:16;12.85;90.33
63407;SHT31;49543;45.892;10.838;2022-11-09T21:04:42;12.83;90.76
63407;SHT31;49543;45.892;10.838;2022-11-09T21:07:07;12.76;91.04
63407;SHT31;49543;45.892;10.838;2022-11-09T21:09:33;12.76;90.23
63407;SHT31;49543;45.892;10.838;2022-11-09T21:11:58;12.71;90.81
63407;SHT31;49543;45.892;10.838;2022-11-09T21:14:42;12.71;90.45
63407;SHT31;49543;45.892;10.838;2022-11-09T21:17:08;12.71;90.60
63407;SHT31;49543;45.892;10.838;2022-11-09T21:19:35;12.68;90.69
63407;SHT31;49543;45.892;10.838;2022-11-09T21:22:00;12.62;90.91
63407;SHT31;49543;45.892;10.838;2022-11-09T21:24:26;12.59;91.49
63407;SHT31;49543;45.892;10.838;2022-11-09T21:27:10;12.52;92.00
63407;SHT31;49543;45.892;10.838;2022-11-09T21:30:10;12.51;91.99
63407;SHT31;49543;45.892;10.838;2022-11-09T21:32:36;12.55;91.94
63407;SHT31;49543;45.892;10.838;2022-11-09T21:35:03;12.61;92.12
63407;SHT31;49543;45.892;10.838;2022-11-09T21:37:28;12.59;92.34
63407;SHT31;49543;45.892;10.838;2022-11-09T21:39:54;12.59;92.58
63407;SHT31;49543;45.892;10.838;2022-11-09T21:42:19;12.55;92.84
63407;SHT31;49543;45.892;10.838;2022-11-09T21:44:45;12.59;92.70
63407;SHT31;49543;45.892;10.838;2022-11-09T21:47:10;12.64;92.76
63407;SHT31;49543;45.892;10.838;2022-11-09T21:49:35;12.65;92.67
63407;SHT31;49543;45.892;10.838;2022-11-09T21:52:01;12.68;92.71
63407;SHT31;49543;45.892;10.838;2022-11-09T21:54:27;12.69;92.71
63407;SHT31;49543;45.892;10.838;2022-11-09T21:56:53;12.69;92.75
63407;SHT31;49543;45.892;10.838;2022-11-09T21:59:19;12.66;92.85
63407;SHT31;49543;45.892;10.838;2022-11-09T22:01:44;12.66;93.19
63407;SHT31;49543;45.892;10.838;2022-11-09T22:04:10;12.66;93.51
63407;SHT31;49543;45.892;10.838;2022-11-09T22:06:37;12.69;93.35
63407;SHT31;49543;45.892;10.838;2022-11-09T22:09:12;12.62;93.48
63407;SHT31;49543;45.892;10.838;2022-11-09T22:11:38;12.58;93.73
63407;SHT31;49543;45.892;10.838;2022-11-09T22:14:24;12.61;93.78
63407;SHT31;49543;45.892;10.838;2022-11-09T22:17:08;12.58;93.55
63407;SHT31;49543;45.892;10.838;2022-11-09T22:19:36;12.54;93.73
63407;SHT31;49543;45.892;10.838;2022-11-09T22:22:20;12.55;93.76
63407;SHT31;49543;45.892;10.838;2022-11-09T22:24:46;12.54;93.77
63407;SHT31;49543;45.892;10.838;2022-11-09T22:27:11;12.56;93.65
63407;SHT31;49543;45.892;10.838;2022-11-09T22:29:37;12.51;93.59
63407;SHT31;49543;45.892;10.838;2022-11-09T22:32:03;12.42;94.09
63407;SHT31;49543;45.892;10.838;2022-11-09T22:34:28;12.42;94.02
63407;SHT31;49543;45.892;10.838;2022-11-09T22:36:54;12.51;93.94
63407;SHT31;49543;45.892;10.838;2022-11-09T22:39:19;12.52;94.08
63407;SHT31;49543;45.892;10.838;2022-11-09T22:41:45;12.54;94.04
63407;SHT31;49543;45.892;10.838;2022-11-09T22:44:10;12.49;93.94
